Time;durP1;ratioP1;P1;durP2;ratioP2;P2;SDS_P1;SDS_P2;PMS_P1;PMS_P2;Temp;Humidity;BMP_temperature;BMP_pressure;BME280_temperature;BME280_humidity;BME280_pressure;Samples;Min_cycle;Max_cycle;Signal;HPM_P1;HPM_P2
2023/05/18 00:01:47;;;;;;;8.95;2.78;;;8.80;99.90;;;;;;5077474;28;20149;-57
2023/05/18 00:04:13;;;;;;;10.50;2.60;;;8.80;99.90;;;;;;5078241;28;20444;-58
2023/05/18 00:06:38;;;;;;;9.05;2.92;;;8.80;99.90;;;;;;5058360;28;20048;-57
2023/05/18 00:09:04;;;;;;;9.25;2.85;;;8.70;99.90;;;;;;5078666;28;20045;-57
2023/05/18 00:11:31;;;;;;;14.15;3.17;;;8.70;99.90;;;;;;5076377;28;20044;-57
2023/05/18 00:13:56;;;;;;;8.20;2.80;;;8.70;99.90;;;;;;5078490;28;20055;-57
2023/05/18 00:16:22;;;;;;;10.18;2.53;;;8.70;99.90;;;;;;5077465;28;20041;-57
2023/05/18 00:18:48;;;;;;;9.00;2.10;;;8.80;99.90;;;;;;5077248;28;20079;-57
2023/05/18 00:21:15;;;;;;;9.10;2.40;;;8.70;99.90;;;;;;5078210;28;20049;-57
2023/05/18 00:23:41;;;;;;;8.43;2.33;;;8.80;99.90;;;;;;5058247;28;20048;-57
2023/05/18 00:26:07;;;;;;;9.30;2.50;;;8.80;99.90;;;;;;5063513;28;20442;-57
2023/05/18 00:28:33;;;;;;;9.80;2.40;;;8.80;99.90;;;;;;5062312;28;20044;-57
2023/05/18 00:30:59;;;;;;;8.25;2.28;;;8.80;99.90;;;;;;5082171;28;20087;-58
2023/05/18 00:33:25;;;;;;;13.38;3.08;;;8.80;99.90;;;;;;5062687;28;20060;-56
2023/05/18 00:35:50;;;;;;;9.45;2.63;;;8.60;99.90;;;;;;5081497;28;20029;-57
2023/05/18 00:38:16;;;;;;;11.93;2.65;;;8.60;99.90;;;;;;5081678;28;20578;-57
2023/05/18 00:40:42;;;;;;;10.23;2.90;;;8.60;99.90;;;;;;5080439;28;20128;-57
2023/05/18 00:43:08;;;;;;;10.05;2.90;;;8.70;99.90;;;;;;5082086;28;20501;-56
2023/05/18 00:45:35;;;;;;;9.05;2.63;;;8.80;99.90;;;;;;5079509;28;20072;-57
2023/05/18 00:48:00;;;;;;;9.57;2.60;;;8.70;99.90;;;;;;5082274;28;20041;-57
2023/05/18 00:50:27;;;;;;;10.50;2.58;;;8.70;99.90;;;;;;5062368;28;20049;-57
2023/05/18 00:52:53;;;;;;;13.32;2.30;;;8.60;99.90;;;;;;5080994;28;20149;-57
2023/05/18 00:55:19;;;;;;;8.85;2.15;;;8.70;99.90;;;;;;5081196;28;20074;-56
2023/05/18 00:57:46;;;;;;;8.68;3.22;;;8.70;99.90;;;;;;5080084;28;20041;-54
2023/05/18 01:00:13;;;;;;;9.23;2.78;;;8.70;99.90;;;;;;5063779;28;20048;-57
2023/05/18 01:02:41;;;;;;;9.27;2.75;;;8.50;99.90;;;;;;5079883;28;20048;-57
2023/05/18 01:05:11;;;;;;;8.70;2.50;;;8.60;99.90;;;;;;5082147;28;20036;-57
2023/05/18 01:07:38;;;;;;;8.77;2.60;;;8.50;99.90;;;;;;5079981;28;20469;-57
2023/05/18 01:10:05;;;;;;;8.35;2.55;;;8.50;99.90;;;;;;5080898;28;20074;-57
2023/05/18 01:12:40;;;;;;;8.48;2.50;;;8.50;99.90;;;;;;5080852;28;20046;-57
2023/05/18 01:15:32;;;;;;;10.45;2.47;;;8.60;99.90;;;;;;5061079;28;20092;-57
2023/05/18 01:18:15;;;;;;;9.70;2.75;;;8.60;99.90;;;;;;5081449;28;20040;-57
2023/05/18 01:21:12;;;;;;;;;;;8.60;99.90;;;;;;5080675;28;20059;-57
2023/05/18 01:23:40;;;;;;;7.20;2.40;;;8.60;99.90;;;;;;5063134;28;19927;-58
2023/05/18 01:26:39;;;;;;;10.90;2.83;;;8.50;99.90;;;;;;5063258;28;20052;-57
2023/05/18 01:29:10;;;;;;;9.77;2.60;;;8.50;99.90;;;;;;5065051;28;20063;-58
2023/05/18 01:31:36;;;;;;;8.77;2.63;;;8.50;99.90;;;;;;5080044;28;20056;-59
2023/05/18 01:34:01;;;;;;;9.07;2.80;;;8.50;99.90;;;;;;5080644;28;20377;-58
2023/05/18 01:36:27;;;;;;;7.95;2.47;;;8.60;99.90;;;;;;5078473;28;20055;-58
2023/05/18 01:38:55;;;;;;;9.00;2.30;;;8.60;99.90;;;;;;5080785;28;20045;-58
2023/05/18 01:41:26;;;;;;;9.52;2.80;;;8.50;99.90;;;;;;5078719;28;20048;-58
2023/05/18 01:44:03;;;;;;;9.48;2.88;;;8.60;99.90;;;;;;5080854;28;20041;-57
2023/05/18 01:46:31;;;;;;;10.82;2.40;;;8.60;99.90;;;;;;5079908;28;20039;-57
2023/05/18 01:49:01;;;;;;;10.05;3.00;;;8.50;99.90;;;;;;5079339;28;20495;-57
2023/05/18 01:51:31;;;;;;;10.07;3.75;;;8.60;99.90;;;;;;5080448;28;20045;-57
2023/05/18 01:54:04;;;;;;;9.27;2.47;;;8.50;99.90;;;;;;5078768;28;20051;-57
2023/05/18 01:56:32;;;;;;;8.50;2.35;;;8.40;99.90;;;;;;5081049;28;20120;-57
2023/05/18 01:58:59;;;;;;;9.55;2.75;;;8.40;99.90;;;;;;5078937;28;20107;-58
2023/05/18 02:01:24;;;;;;;12.10;3.53;;;8.50;99.90;;;;;;5079813;28;20044;-57
2023/05/18 02:03:50;;;;;;;11.70;2.60;;;8.60;99.90;;;;;;5079677;28;20514;-57
2023/05/18 02:06:16;;;;;;;8.55;2.70;;;8.50;99.90;;;;;;5078853;28;20065;-57
2023/05/18 02:08:42;;;;;;;9.20;2.85;;;9.00;99.90;;;;;;5080158;28;20471;-57
2023/05/18 02:11:08;;;;;;;12.48;2.80;;;8.60;99.90;;;;;;5078396;28;20076;-57
2023/05/18 02:13:34;;;;;;;10.63;2.88;;;8.50;99.90;;;;;;5080514;28;20495;-57
2023/05/18 02:15:59;;;;;;;9.55;2.50;;;8.50;99.90;;;;;;5078606;28;20040;-56
2023/05/18 02:18:25;;;;;;;11.80;2.80;;;8.50;99.90;;;;;;5061732;28;20041;-57
2023/05/18 02:20:59;;;;;;;7.57;2.78;;;8.70;99.90;;;;;;5079477;28;20181;-57
2023/05/18 02:23:26;;;;;;;9.57;2.67;;;8.70;99.90;;;;;;5078682;28;20048;-58
2023/05/18 02:25:55;;;;;;;8.35;3.42;;;8.70;99.90;;;;;;5079889;28;20074;-57
2023/05/18 02:28:21;;;;;;;14.50;3.05;;;8.60;99.90;;;;;;5077699;28;20577;-57
2023/05/18 02:30:47;;;;;;;11.85;2.83;;;8.50;99.90;;;;;;5061625;28;20058;-57
2023/05/18 02:33:13;;;;;;;7.97;2.72;;;8.50;99.90;;;;;;5078357;28;20080;-57
2023/05/18 02:35:39;;;;;;;8.95;2.60;;;8.60;99.90;;;;;;5079513;28;20083;-57
2023/05/18 02:38:06;;;;;;;11.05;2.65;;;8.60;99.90;;;;;;5079201;28;20060;-57
2023/05/18 02:40:31;;;;;;;9.55;2.80;;;8.50;99.90;;;;;;5078386;28;20049;-57
2023/05/18 02:42:57;;;;;;;11.48;2.75;;;8.40;99.90;;;;;;5079775;28;20411;-57
2023/05/18 02:45:23;;;;;;;7.95;2.90;;;8.40;99.90;;;;;;5077396;28;20044;-57
2023/05/18 02:47:48;;;;;;;12.77;3.85;;;8.40;99.90;;;;;;5078884;28;20059;-57
2023/05/18 02:50:14;;;;;;;14.18;3.72;;;8.40;99.90;;;;;;5077418;28;20075;-58
2023/05/18 02:52:40;;;;;;;8.23;3.30;;;8.40;99.90;;;;;;5079305;28;20075;-58
2023/05/18 02:55:06;;;;;;;9.50;3.50;;;8.40;99.90;;;;;;5078779;28;20067;-58
2023/05/18 02:57:32;;;;;;;9.63;3.30;;;8.50;99.90;;;;;;5078414;28;20055;-57
2023/05/18 02:59:58;;;;;;;7.85;3.50;;;8.50;99.90;;;;;;5078820;28;20100;-58
2023/05/18 03:02:24;;;;;;;9.77;3.50;;;8.50;99.90;;;;;;5077275;28;20043;-58
2023/05/18 03:04:52;;;;;;;10.55;3.95;;;8.60;99.90;;;;;;5079534;28;20060;-57
2023/05/18 03:07:20;;;;;;;11.25;3.60;;;8.60;99.90;;;;;;5077539;28;20048;-57
2023/05/18 03:09:45;;;;;;;12.75;3.45;;;8.60;99.90;;;;;;5079116;28;20295;-58
2023/05/18 03:12:11;;;;;;;8.88;3.85;;;8.50;99.90;;;;;;5060365;28;20048;-57
2023/05/18 03:14:37;;;;;;;9.57;3.33;;;8.60;99.90;;;;;;5077810;28;20048;-57
2023/05/18 03:17:04;;;;;;;10.07;3.90;;;8.60;99.90;;;;;;5078986;28;20435;-57
2023/05/18 03:19:31;;;;;;;12.95;4.35;;;8.50;99.90;;;;;;5077086;28;20048;-57
2023/05/18 03:21:57;;;;;;;8.32;3.70;;;8.60;99.90;;;;;;5079152;28;20049;-57
2023/05/18 03:24:25;;;;;;;11.38;3.30;;;8.50;99.90;;;;;;5076912;28;20074;-57
2023/05/18 03:26:53;;;;;;;9.25;3.40;;;8.40;99.90;;;;;;5078882;28;20135;-57
2023/05/18 03:29:19;;;;;;;11.00;3.40;;;8.60;99.90;;;;;;5077574;28;20048;-57
2023/05/18 03:31:45;;;;;;;9.80;3.88;;;8.50;99.90;;;;;;5077184;28;20820;-57
2023/05/18 03:34:11;;;;;;;9.18;3.15;;;8.60;99.90;;;;;;5078430;28;20100;-57
2023/05/18 03:36:37;;;;;;;10.90;3.78;;;8.50;99.90;;;;;;5058790;28;20049;-57
2023/05/18 03:39:05;;;;;;;9.75;3.60;;;8.50;99.90;;;;;;5079037;28;20612;-57
2023/05/18 03:41:31;;;;;;;7.38;3.67;;;8.50;99.90;;;;;;5077163;28;20075;-57
2023/05/18 03:43:57;;;;;;;9.35;3.90;;;8.50;99.90;;;;;;5078318;28;20047;-57
2023/05/18 03:46:23;;;;;;;9.20;3.40;;;8.40;99.90;;;;;;5078008;28;20111;-57
2023/05/18 03:48:49;;;;;;;7.43;3.35;;;8.50;99.90;;;;;;5077265;28;20037;-56
2023/05/18 03:51:15;;;;;;;9.85;3.90;;;8.50;99.90;;;;;;5078445;28;20101;-57
2023/05/18 03:53:41;;;;;;;11.65;3.80;;;8.50;99.90;;;;;;5058606;28;20072;-57
2023/05/18 03:56:07;;;;;;;8.48;3.42;;;8.50;99.90;;;;;;5078793;28;20041;-57
2023/05/18 03:58:33;;;;;;;6.95;3.70;;;8.50;99.90;;;;;;5076596;28;20059;-57
2023/05/18 04:01:00;;;;;;;11.05;3.63;;;8.40;99.90;;;;;;5078117;28;20473;-58
2023/05/18 04:03:25;;;;;;;10.68;3.78;;;8.50;99.90;;;;;;5077154;28;20059;-57
2023/05/18 04:05:52;;;;;;;10.90;3.35;;;8.50;99.90;;;;;;5077522;28;20041;-57
2023/05/18 04:08:19;;;;;;;9.23;3.85;;;8.50;99.90;;;;;;5078333;28;20476;-57
2023/05/18 04:10:45;;;;;;;8.07;3.40;;;8.50;99.90;;;;;;5076494;28;20055;-57
2023/05/18 04:13:11;;;;;;;7.70;3.05;;;8.60;99.90;;;;;;5078536;28;20049;-57
2023/05/18 04:15:37;;;;;;;10.57;3.78;;;8.70;99.90;;;;;;5076461;28;20127;-57
2023/05/18 04:18:03;;;;;;;12.73;3.30;;;8.60;99.90;;;;;;5078605;28;20396;-57
2023/05/18 04:20:29;;;;;;;10.38;3.35;;;8.70;99.90;;;;;;5076939;28;20052;-57
2023/05/18 04:22:58;;;;;;;11.20;3.45;;;8.70;99.90;;;;;;5077649;28;20056;-57
2023/05/18 04:25:26;;;;;;;11.68;2.97;;;8.70;99.90;;;;;;5077685;28;20096;-57
2023/05/18 04:27:53;;;;;;;9.98;3.22;;;8.70;99.90;;;;;;5076328;28;20040;-57
2023/05/18 04:30:22;;;;;;;11.25;3.72;;;8.80;99.90;;;;;;5078312;28;20040;-58
2023/05/18 04:32:48;;;;;;;11.95;3.35;;;8.80;99.90;;;;;;5044241;28;20116;-57
2023/05/18 04:35:15;;;;;;;8.77;3.00;;;8.80;99.90;;;;;;5058188;28;20068;-57
2023/05/18 04:37:41;;;;;;;9.52;2.83;;;8.80;99.90;;;;;;5057097;28;20118;-58
2023/05/18 04:40:12;;;;;;;8.98;2.75;;;8.80;99.90;;;;;;5057051;28;20044;-58
2023/05/18 04:42:44;;;;;;;8.60;2.75;;;8.90;99.90;;;;;;5057818;28;20037;-57
2023/05/18 04:45:19;;;;;;;9.57;3.20;;;8.80;99.90;;;;;;5055998;28;20045;-58
2023/05/18 04:47:47;;;;;;;9.48;2.95;;;8.80;99.90;;;;;;5058348;28;20033;-58
2023/05/18 04:50:16;;;;;;;11.90;3.28;;;8.80;99.90;;;;;;5056268;28;20037;-57
2023/05/18 04:52:47;;;;;;;11.80;3.53;;;8.90;99.90;;;;;;5057586;28;20071;-57
2023/05/18 04:55:15;;;;;;;8.70;3.10;;;8.80;99.90;;;;;;5057389;28;20513;-57
2023/05/18 04:57:41;;;;;;;10.75;2.92;;;8.90;99.90;;;;;;5038428;28;20065;-57
2023/05/18 05:00:08;;;;;;;10.18;3.38;;;8.80;99.90;;;;;;5039501;28;20087;-57
2023/05/18 05:02:34;;;;;;;9.40;3.30;;;8.90;99.90;;;;;;5055662;28;20528;-57
2023/05/18 05:05:00;;;;;;;11.20;3.97;;;8.90;99.90;;;;;;5058171;28;20064;-57
2023/05/18 05:07:25;;;;;;;9.90;3.85;;;8.80;99.90;;;;;;5056143;28;20550;-57
2023/05/18 05:09:51;;;;;;;9.88;3.72;;;9.00;99.90;;;;;;5057511;28;20492;-58
2023/05/18 05:12:17;;;;;;;8.65;3.33;;;9.00;99.90;;;;;;5058697;28;20504;-58
2023/05/18 05:14:42;;;;;;;9.18;3.45;;;9.00;99.90;;;;;;5041946;28;20120;-58
2023/05/18 05:17:08;;;;;;;7.10;2.85;;;9.10;99.90;;;;;;5061289;28;20041;-58
2023/05/18 05:19:34;;;;;;;12.13;3.38;;;9.10;99.90;;;;;;5059255;28;20468;-57
2023/05/18 05:21:59;;;;;;;9.98;3.67;;;9.20;99.90;;;;;;5061156;28;20048;-57
2023/05/18 05:24:25;;;;;;;9.02;3.92;;;9.20;99.90;;;;;;5059477;28;20044;-57
2023/05/18 05:26:51;;;;;;;8.95;3.15;;;9.20;99.90;;;;;;5061151;28;20037;-54
2023/05/18 05:29:17;;;;;;;10.00;3.20;;;9.30;99.90;;;;;;5042172;28;20053;-56
2023/05/18 05:31:43;;;;;;;10.15;3.22;;;9.40;99.90;;;;;;5059589;28;20072;-58
2023/05/18 05:34:10;;;;;;;10.90;2.50;;;9.40;99.90;;;;;;5060776;28;20037;-57
2023/05/18 05:36:37;;;;;;;8.55;2.35;;;9.50;99.90;;;;;;5058986;28;20049;-57
2023/05/18 05:39:03;;;;;;;10.63;2.70;;;9.70;99.90;;;;;;5061232;28;20480;-56
2023/05/18 05:41:29;;;;;;;7.03;2.40;;;9.60;99.90;;;;;;5059102;28;20041;-57
2023/05/18 05:43:55;;;;;;;8.32;2.35;;;9.60;99.90;;;;;;5060697;28;20079;-58
2023/05/18 05:46:21;;;;;;;9.27;2.13;;;9.80;99.90;;;;;;5059896;28;20076;-57
2023/05/18 05:48:47;;;;;;;8.73;2.33;;;9.70;99.90;;;;;;5059639;28;20040;-57
2023/05/18 05:51:12;;;;;;;9.05;2.42;;;9.80;99.90;;;;;;5060612;28;20037;-58
2023/05/18 05:53:38;;;;;;;9.07;2.50;;;9.80;99.90;;;;;;5058965;28;20112;-57
2023/05/18 05:56:04;;;;;;;7.03;2.90;;;9.80;99.90;;;;;;5060794;28;20045;-57
2023/05/18 05:58:29;;;;;;;9.43;2.70;;;9.90;99.90;;;;;;5058717;28;20049;-57
2023/05/18 06:00:55;;;;;;;9.48;2.65;;;9.90;99.90;;;;;;5060445;28;20433;-57
2023/05/18 06:03:21;;;;;;;8.57;2.45;;;9.90;99.90;;;;;;5059232;28;20394;-57
2023/05/18 06:05:47;;;;;;;12.88;2.75;;;9.90;99.90;;;;;;5059536;28;20091;-57
2023/05/18 06:08:13;;;;;;;10.32;2.75;;;10.00;99.90;;;;;;5041999;28;20076;-57
2023/05/18 06:10:40;;;;;;;13.20;2.60;;;10.00;99.90;;;;;;5058726;28;20040;-58
2023/05/18 06:13:06;;;;;;;9.80;2.50;;;10.00;99.90;;;;;;5060248;28;20509;-58
2023/05/18 06:15:31;;;;;;;7.55;2.10;;;10.10;99.90;;;;;;5040465;28;20424;-57
2023/05/18 06:17:57;;;;;;;9.95;2.60;;;10.00;99.90;;;;;;5060279;28;20471;-57
2023/05/18 06:20:23;;;;;;;13.07;2.28;;;10.00;99.90;;;;;;5058934;28;20068;-58
2023/05/18 06:22:48;;;;;;;7.13;2.75;;;10.30;99.90;;;;;;5059236;28;20044;-57
2023/05/18 06:25:14;;;;;;;8.77;2.03;;;10.30;99.90;;;;;;5059800;28;20037;-58
2023/05/18 06:27:41;;;;;;;8.77;2.45;;;10.50;99.90;;;;;;5058348;28;20132;-57
2023/05/18 06:30:09;;;;;;;13.77;2.45;;;10.60;99.90;;;;;;5059794;28;20056;-58
2023/05/18 06:32:36;;;;;;;8.52;2.75;;;10.60;99.90;;;;;;5082230;28;20060;-58
2023/05/18 06:35:02;;;;;;;11.00;2.83;;;10.60;99.90;;;;;;5100462;28;20089;-57
2023/05/18 06:37:28;;;;;;;8.65;2.08;;;10.60;99.90;;;;;;5098895;28;20055;-57
2023/05/18 06:39:54;;;;;;;10.20;2.10;;;10.60;99.90;;;;;;5099448;28;20470;-58
2023/05/18 06:42:19;;;;;;;5.90;2.10;;;10.80;99.90;;;;;;5099456;28;20070;-57
2023/05/18 06:44:45;;;;;;;11.65;2.20;;;10.80;99.90;;;;;;5098453;28;20052;-57
2023/05/18 06:47:11;;;;;;;8.38;2.20;;;10.90;99.90;;;;;;5099595;28;20588;-58
2023/05/18 06:49:36;;;;;;;8.25;2.40;;;11.00;99.90;;;;;;5098041;28;20048;-56
2023/05/18 06:52:03;;;;;;;8.50;2.78;;;10.90;99.90;;;;;;5099992;28;20040;-58
2023/05/18 06:54:29;;;;;;;7.05;1.90;;;11.10;99.90;;;;;;5080236;28;20082;-57
2023/05/18 06:56:55;;;;;;;8.55;2.60;;;11.00;99.90;;;;;;5099291;28;20058;-58
2023/05/18 06:59:21;;;;;;;7.40;2.67;;;11.00;99.90;;;;;;5098818;28;20080;-57
2023/05/18 07:01:47;;;;;;;6.70;2.08;;;10.90;99.90;;;;;;5098131;28;20483;-57
2023/05/18 07:04:14;;;;;;;10.32;2.78;;;11.00;99.90;;;;;;5099596;28;20039;-58
2023/05/18 07:06:40;;;;;;;9.40;2.45;;;11.10;99.90;;;;;;5097658;28;20048;-57
2023/05/18 07:09:07;;;;;;;7.55;2.30;;;11.10;99.90;;;;;;5099526;28;20207;-58
2023/05/18 07:11:33;;;;;;;9.93;2.40;;;11.20;99.90;;;;;;5097956;28;20074;-58
2023/05/18 07:13:59;;;;;;;7.88;2.22;;;11.20;99.90;;;;;;5099324;28;20036;-58
2023/05/18 07:16:26;;;;;;;6.20;2.05;;;11.20;99.90;;;;;;5098680;28;20048;-57
2023/05/18 07:18:52;;;;;;;12.32;2.33;;;11.30;99.90;;;;;;5098032;28;20085;-58
2023/05/18 07:21:18;;;;;;;8.63;2.10;;;11.40;99.90;;;;;;5080732;28;20089;-57
2023/05/18 07:23:43;;;;;;;10.38;2.20;;;11.30;99.90;;;;;;5097444;28;20132;-58
2023/05/18 07:26:10;;;;;;;11.20;2.65;;;11.30;99.90;;;;;;5099384;28;20123;-57
2023/05/18 07:28:37;;;;;;;8.80;2.17;;;11.40;99.90;;;;;;5097511;28;20048;-57
2023/05/18 07:31:04;;;;;;;8.60;2.15;;;11.40;99.90;;;;;;5098639;28;20051;-57
2023/05/18 07:33:29;;;;;;;8.80;2.40;;;11.50;99.90;;;;;;5098327;28;20052;-57
2023/05/18 07:35:55;;;;;;;8.23;2.45;;;11.60;99.90;;;;;;5097202;28;20050;-57
2023/05/18 07:38:21;;;;;;;9.35;2.20;;;11.30;99.90;;;;;;5098850;28;20036;-57
2023/05/18 07:40:46;;;;;;;6.18;1.70;;;11.60;99.90;;;;;;5079220;28;20050;-57
2023/05/18 07:43:12;;;;;;;6.53;2.00;;;11.70;99.90;;;;;;5099359;28;20082;-58
2023/05/18 07:45:38;;;;;;;8.23;2.15;;;11.80;99.90;;;;;;5097134;28;20046;-57
2023/05/18 07:48:04;;;;;;;5.78;1.70;;;11.80;99.90;;;;;;5098905;28;20194;-58
2023/05/18 07:50:29;;;;;;;7.35;1.83;;;11.90;99.90;;;;;;5097780;28;20550;-57
2023/05/18 07:52:55;;;;;;;8.18;1.83;;;12.00;99.90;;;;;;5097886;28;20069;-57
2023/05/18 07:55:21;;;;;;;7.90;1.83;;;12.00;99.90;;;;;;5098322;28;20104;-57
2023/05/18 07:57:47;;;;;;;7.82;1.83;;;12.00;99.90;;;;;;5078962;28;20036;-57
2023/05/18 08:00:13;;;;;;;6.45;1.73;;;12.00;99.90;;;;;;5098496;28;20073;-57
2023/05/18 08:02:39;;;;;;;7.53;1.75;;;12.10;99.90;;;;;;5096829;28;20040;-57
2023/05/18 08:05:05;;;;;;;8.35;2.05;;;12.30;99.90;;;;;;5098821;28;20065;-57
2023/05/18 08:07:31;;;;;;;9.68;2.45;;;12.40;99.90;;;;;;5097445;28;20109;-57
2023/05/18 08:09:57;;;;;;;8.85;1.88;;;12.40;99.90;;;;;;5097618;28;20040;-55
2023/05/18 08:12:24;;;;;;;6.38;1.83;;;12.40;99.90;;;;;;5098482;28;20095;-57
2023/05/18 08:14:50;;;;;;;7.65;2.83;;;12.60;99.90;;;;;;5078674;28;20144;-57
2023/05/18 08:17:17;;;;;;;7.57;1.75;;;12.60;99.90;;;;;;5098705;28;20044;-57
2023/05/18 08:19:43;;;;;;;7.75;2.00;;;12.70;99.90;;;;;;5096837;28;20061;-57
2023/05/18 08:22:08;;;;;;;7.68;2.10;;;12.90;99.90;;;;;;5098802;28;20116;-57
2023/05/18 08:24:34;;;;;;;7.63;1.83;;;12.90;99.90;;;;;;5097170;28;20035;-57
2023/05/18 08:27:02;;;;;;;8.13;2.08;;;12.90;99.90;;;;;;5097972;28;20065;-57
2023/05/18 08:29:27;;;;;;;6.68;2.75;;;12.90;99.90;;;;;;5097814;28;20086;-58
2023/05/18 08:31:53;;;;;;;11.05;2.90;;;12.80;99.90;;;;;;5096719;28;20044;-57
2023/05/18 08:34:19;;;;;;;7.30;2.42;;;13.00;99.90;;;;;;5080629;28;20124;-57
2023/05/18 08:36:45;;;;;;;6.78;2.13;;;13.00;99.90;;;;;;5096536;28;20468;-57
2023/05/18 08:39:14;;;;;;;9.40;2.30;;;13.10;99.90;;;;;;5098746;28;20062;-57
2023/05/18 08:41:46;;;;;;;9.93;2.35;;;13.10;99.90;;;;;;5097002;28;20044;-57
2023/05/18 08:44:20;;;;;;;5.28;1.90;;;13.10;99.90;;;;;;5097646;28;20051;-58
2023/05/18 08:46:49;;;;;;;6.32;2.05;;;13.10;99.90;;;;;;5100696;28;20051;-57
2023/05/18 08:49:20;;;;;;;6.93;2.05;;;13.10;99.90;;;;;;5100324;28;20040;-57
2023/05/18 08:51:53;;;;;;;7.53;1.98;;;13.00;99.90;;;;;;5102593;28;20066;-57
2023/05/18 08:54:21;;;;;;;8.30;1.90;;;13.00;99.90;;;;;;5100373;28;20059;-57
2023/05/18 08:56:47;;;;;;;8.10;2.17;;;13.20;99.90;;;;;;5102131;28;20036;-57
2023/05/18 08:59:17;;;;;;;7.25;1.98;;;13.10;99.90;;;;;;5101581;28;20057;-57
2023/05/18 09:01:43;;;;;;;7.63;2.42;;;13.20;99.90;;;;;;5100243;28;20040;-57
2023/05/18 09:04:09;;;;;;;8.60;2.40;;;13.20;99.90;;;;;;5101567;28;20048;-57
2023/05/18 09:06:36;;;;;;;8.63;2.28;;;13.50;99.90;;;;;;5099802;28;20091;-57
2023/05/18 09:09:05;;;;;;;10.98;2.28;;;13.40;99.90;;;;;;5101975;28;20051;-56
2023/05/18 09:11:33;;;;;;;8.50;1.95;;;13.50;99.90;;;;;;5100366;28;20059;-57
2023/05/18 09:13:59;;;;;;;10.05;2.95;;;13.40;99.90;;;;;;5101603;28;20093;-57
2023/05/18 09:16:25;;;;;;;13.48;2.70;;;13.30;99.90;;;;;;5101152;28;20040;-57
2023/05/18 09:18:51;;;;;;;9.27;2.50;;;13.30;99.90;;;;;;5100266;28;20044;-57
2023/05/18 09:21:17;;;;;;;9.35;2.47;;;13.00;99.90;;;;;;5101509;28;20040;-57
2023/05/18 09:23:44;;;;;;;6.65;2.03;;;13.00;99.90;;;;;;5099620;28;20059;-57
2023/05/18 09:26:11;;;;;;;10.43;2.83;;;13.10;99.90;;;;;;5102099;28;20047;-57
2023/05/18 09:28:38;;;;;;;10.20;3.28;;;13.10;99.90;;;;;;5099737;28;20087;-57
2023/05/18 09:31:07;;;;;;;8.63;2.55;;;13.00;99.90;;;;;;5100843;28;20047;-57
2023/05/18 09:33:36;;;;;;;8.55;2.58;;;13.10;99.90;;;;;;5100798;28;20048;-57
2023/05/18 09:36:06;;;;;;;8.55;2.28;;;13.10;99.90;;;;;;5099785;28;20396;-57
2023/05/18 09:38:36;;;;;;;9.57;2.95;;;13.20;99.90;;;;;;5083270;28;20113;-57
2023/05/18 09:41:02;;;;;;;8.80;2.25;;;13.30;99.90;;;;;;5099292;28;20055;-57
2023/05/18 09:43:28;;;;;;;8.05;3.17;;;13.20;99.90;;;;;;5101648;28;20089;-57
2023/05/18 09:45:54;;;;;;;6.75;2.03;;;13.40;99.90;;;;;;5099601;28;20052;-57
2023/05/18 09:48:21;;;;;;;8.25;2.50;;;13.30;99.90;;;;;;5082222;28;20039;-57
2023/05/18 09:50:48;;;;;;;8.57;2.05;;;13.10;99.90;;;;;;5100643;28;20048;-57
2023/05/18 09:53:14;;;;;;;9.93;2.65;;;13.30;99.90;;;;;;5099544;28;20066;-57
2023/05/18 09:55:46;;;;;;;10.45;2.60;;;13.30;99.90;;;;;;5101101;28;20043;-57
2023/05/18 09:58:12;;;;;;;7.57;3.08;;;13.50;99.90;;;;;;5098523;28;20040;-57
2023/05/18 10:00:43;;;;;;;8.13;2.67;;;13.50;99.90;;;;;;5100901;28;20074;-57
2023/05/18 10:03:23;;;;;;;9.57;2.15;;;13.60;99.90;;;;;;5099307;28;20190;-57
2023/05/18 10:05:50;;;;;;;8.65;2.30;;;13.80;99.90;;;;;;5081268;28;20055;-56
2023/05/18 10:08:16;;;;;;;6.65;2.55;;;13.80;99.90;;;;;;5065801;28;20386;-57
2023/05/18 10:10:47;;;;;;;7.28;2.20;;;13.90;99.90;;;;;;5098735;28;20036;-57
2023/05/18 10:13:17;;;;;;;9.10;2.25;;;14.10;99.90;;;;;;5100883;28;20079;-57
2023/05/18 10:15:52;;;;;;;10.57;3.13;;;14.10;99.90;;;;;;5080789;28;20044;-57
2023/05/18 10:18:23;;;;;;;9.63;2.50;;;14.20;99.90;;;;;;5100029;28;20074;-57
2023/05/18 10:20:50;;;;;;;8.98;2.67;;;14.10;99.90;;;;;;5099883;28;20058;-57
2023/05/18 10:23:21;;;;;;;10.10;2.78;;;14.30;99.90;;;;;;5098850;28;20040;-56
2023/05/18 10:25:48;;;;;;;8.82;2.88;;;14.00;99.90;;;;;;5100502;28;20052;-57
2023/05/18 10:28:24;;;;;;;8.45;2.22;;;14.20;99.90;;;;;;5098396;28;20036;-57
2023/05/18 10:30:52;;;;;;;11.68;2.70;;;14.20;99.90;;;;;;5100171;28;20048;-57
2023/05/18 10:33:20;;;;;;;10.48;2.20;;;14.30;99.90;;;;;;5099034;28;20075;-56
2023/05/18 10:35:48;;;;;;;10.82;2.40;;;14.40;99.90;;;;;;5099221;28;20047;-57
2023/05/18 10:38:19;;;;;;;6.25;2.28;;;14.60;99.90;;;;;;5100153;28;20044;-57
2023/05/18 10:40:47;;;;;;;7.45;2.30;;;14.50;99.90;;;;;;5098240;28;20043;-57
2023/05/18 10:43:18;;;;;;;6.78;2.10;;;14.60;99.00;;;;;;5100363;28;20484;-57
2023/05/18 10:45:50;;;;;;;7.28;2.15;;;14.40;99.70;;;;;;5098336;28;20334;-57
2023/05/18 10:48:17;;;;;;;9.98;2.58;;;14.50;99.90;;;;;;5099600;28;20093;-57
2023/05/18 10:50:43;;;;;;;10.18;2.35;;;14.60;99.90;;;;;;5099246;28;20048;-57
2023/05/18 10:53:10;;;;;;;8.40;2.20;;;14.70;99.90;;;;;;5098301;28;20246;-56
2023/05/18 10:55:35;;;;;;;10.93;2.55;;;14.70;99.90;;;;;;5099943;28;20101;-58
2023/05/18 10:58:09;;;;;;;11.20;2.35;;;14.60;99.90;;;;;;5097853;28;20052;-57
2023/05/18 11:00:37;;;;;;;12.00;3.50;;;14.60;99.90;;;;;;5099808;28;20427;-57
2023/05/18 11:03:07;;;;;;;6.97;2.75;;;14.50;99.90;;;;;;5098259;28;20100;-56
2023/05/18 11:05:33;;;;;;;8.05;2.20;;;14.10;99.90;;;;;;5098620;28;20080;-57
2023/05/18 11:08:02;;;;;;;10.70;2.88;;;14.40;99.90;;;;;;5098922;28;20070;-57
2023/05/18 11:10:47;;;;;;;12.70;2.92;;;14.40;99.90;;;;;;5096968;28;20047;-57
2023/05/18 11:13:14;;;;;;;8.65;2.10;;;14.60;99.90;;;;;;5081386;28;20052;-56
2023/05/18 11:15:54;;;;;;;5.70;2.13;;;14.70;99.90;;;;;;5098035;28;20093;-58
2023/05/18 11:18:38;;;;;;;10.50;2.63;;;14.90;99.90;;;;;;5098736;28;20040;-57
2023/05/18 11:21:23;;;;;;;6.78;2.08;;;14.50;99.90;;;;;;5099150;28;20073;-56
2023/05/18 11:24:17;;;;;;;8.80;2.70;;;14.50;99.90;;;;;;5097574;28;20044;-57
2023/05/18 11:26:48;;;;;;;9.73;2.67;;;14.60;99.90;;;;;;5099120;28;20070;-57
2023/05/18 11:29:18;;;;;;;7.68;2.08;;;14.70;99.90;;;;;;5098794;28;20043;-56
2023/05/18 11:31:52;;;;;;;12.23;2.72;;;14.50;99.90;;;;;;5096881;28;20131;-57
2023/05/18 11:34:44;;;;;;;9.40;1.80;;;14.50;99.90;;;;;;5099046;28;20056;-57
2023/05/18 11:37:11;;;;;;;6.38;2.05;;;14.60;99.90;;;;;;5097708;28;20046;-57
2023/05/18 11:39:37;;;;;;;12.43;2.08;;;14.60;99.90;;;;;;5098680;28;20047;-57
2023/05/18 11:42:06;;;;;;;9.73;2.95;;;14.70;99.90;;;;;;5098580;28;20096;-58
2023/05/18 11:44:32;;;;;;;6.53;1.80;;;14.50;99.90;;;;;;5097497;28;20048;-57
2023/05/18 11:46:57;;;;;;;8.70;2.17;;;14.60;99.90;;;;;;5098820;28;20552;-56
2023/05/18 11:49:44;;;;;;;9.40;2.58;;;14.80;99.90;;;;;;5096627;28;20044;-56
2023/05/18 11:52:17;;;;;;;9.75;3.20;;;14.70;99.90;;;;;;5099139;28;20040;-57
2023/05/18 11:54:59;;;;;;;7.50;1.80;;;14.80;99.90;;;;;;5098113;28;20105;-57
2023/05/18 11:57:34;;;;;;;7.18;1.85;;;14.80;99.90;;;;;;5097259;28;20032;-57
2023/05/18 12:00:02;;;;;;;9.68;2.65;;;14.70;99.90;;;;;;5098735;28;20048;-57
2023/05/18 12:02:32;;;;;;;11.40;2.47;;;14.70;99.90;;;;;;5096699;28;20067;-57
2023/05/18 12:04:59;;;;;;;12.43;2.40;;;14.90;99.90;;;;;;5098891;28;20103;-57
2023/05/18 12:07:35;;;;;;;9.60;1.92;;;14.70;99.90;;;;;;5097542;28;20110;-57
2023/05/18 12:10:07;;;;;;;9.95;2.50;;;14.50;99.90;;;;;;5097116;28;20037;-57
2023/05/18 12:12:34;;;;;;;9.13;2.10;;;14.20;99.90;;;;;;5098634;28;20039;-59
2023/05/18 12:15:04;;;;;;;8.10;2.60;;;14.60;99.90;;;;;;5096749;28;20466;-57
2023/05/18 12:17:43;;;;;;;12.07;3.13;;;15.00;99.90;;;;;;5099087;28;20048;-57
2023/05/18 12:20:14;;;;;;;8.25;2.30;;;14.80;99.90;;;;;;5097426;28;20036;-57
2023/05/18 12:22:41;;;;;;;8.80;2.25;;;14.80;99.90;;;;;;5101968;28;20032;-57
2023/05/18 12:25:08;;;;;;;8.95;2.17;;;14.80;99.90;;;;;;5102511;28;20040;-58
2023/05/18 12:27:42;;;;;;;8.15;2.50;;;14.80;99.90;;;;;;5100790;28;20082;-57
2023/05/18 12:30:10;;;;;;;8.18;2.50;;;15.10;99.90;;;;;;5102704;28;20040;-57
2023/05/18 12:32:37;;;;;;;7.45;2.50;;;15.10;99.90;;;;;;5075720;28;20061;-57
2023/05/18 12:35:04;;;;;;;11.95;3.83;;;15.00;99.90;;;;;;5062022;28;20491;-57
2023/05/18 12:37:30;;;;;;;9.23;3.20;;;15.20;99.90;;;;;;5061089;28;20532;-57
2023/05/18 12:39:56;;;;;;;9.80;2.50;;;14.70;99.90;;;;;;5061023;28;20071;-57
2023/05/18 12:42:22;;;;;;;10.77;2.58;;;14.60;99.90;;;;;;5061678;28;20053;-57
2023/05/18 12:44:49;;;;;;;9.90;2.80;;;14.30;99.90;;;;;;5060242;28;20051;-57
2023/05/18 12:47:15;;;;;;;10.80;2.47;;;14.60;99.90;;;;;;5062136;28;20037;-57
2023/05/18 12:49:47;;;;;;;7.95;2.40;;;14.60;99.90;;;;;;5059749;28;20068;-57
2023/05/18 12:52:15;;;;;;;8.50;2.78;;;14.90;99.90;;;;;;5061833;28;20047;-57